sensor_id;sensor_type;location;lat;lon;timestamp;pressure;altitude;pressure_sealevel;temperature;humidity
19086;BME280;9675;51.538;6.728;2023-01-27T00:01:03;102010.00;;;4.65;100.00
19086;BME280;9675;51.538;6.728;2023-01-27T00:03:30;102003.25;;;4.66;100.00
19086;BME280;9675;51.538;6.728;2023-01-27T00:05:57;102004.09;;;4.66;100.00
19086;BME280;9675;51.538;6.728;2023-01-27T00:08:26;102008.59;;;4.69;100.00
19086;BME280;9675;51.538;6.728;2023-01-27T00:10:57;101997.25;;;4.65;100.00
19086;BME280;9675;51.538;6.728;2023-01-27T00:13:39;102007.97;;;4.71;100.00
19086;BME280;9675;51.538;6.728;2023-01-27T00:16:06;102000.31;;;4.71;100.00
19086;BME280;9675;51.538;6.728;2023-01-27T00:18:33;102017.31;;;4.71;100.00
19086;BME280;9675;51.538;6.728;2023-01-27T00:21:00;102008.47;;;4.67;100.00
19086;BME280;9675;51.538;6.728;2023-01-27T00:23:45;102017.00;;;4.68;100.00
19086;BME280;9675;51.538;6.728;2023-01-27T00:26:30;102014.03;;;4.63;100.00
19086;BME280;9675;51.538;6.728;2023-01-27T00:28:58;102013.00;;;4.61;100.00
19086;BME280;9675;51.538;6.728;2023-01-27T00:31:25;102011.06;;;4.59;100.00
19086;BME280;9675;51.538;6.728;2023-01-27T00:34:10;102016.31;;;4.60;100.00
19086;BME280;9675;51.538;6.728;2023-01-27T00:36:39;102018.88;;;4.60;100.00
19086;BME280;9675;51.538;6.728;2023-01-27T00:39:10;102010.19;;;4.58;100.00
19086;BME280;9675;51.538;6.728;2023-01-27T00:41:39;102018.88;;;4.60;100.00
19086;BME280;9675;51.538;6.728;2023-01-27T00:44:08;102012.88;;;4.60;100.00
19086;BME280;9675;51.538;6.728;2023-01-27T00:46:38;102012.72;;;4.58;100.00
19086;BME280;9675;51.538;6.728;2023-01-27T00:49:05;102015.28;;;4.58;100.00
19086;BME280;9675;51.538;6.728;2023-01-27T00:51:32;102010.31;;;4.60;100.00
19086;BME280;9675;51.538;6.728;2023-01-27T00:54:01;102008.69;;;4.60;100.00
19086;BME280;9675;51.538;6.728;2023-01-27T00:56:28;102009.44;;;4.59;100.00
19086;BME280;9675;51.538;6.728;2023-01-27T00:58:55;102007.47;;;4.57;100.00
19086;BME280;9675;51.538;6.728;2023-01-27T01:01:24;102012.31;;;4.54;100.00
19086;BME280;9675;51.538;6.728;2023-01-27T01:03:51;102013.97;;;4.53;100.00
19086;BME280;9675;51.538;6.728;2023-01-27T01:06:19;102019.97;;;4.54;100.00
19086;BME280;9675;51.538;6.728;2023-01-27T01:08:46;102026.88;;;4.55;100.00
19086;BME280;9675;51.538;6.728;2023-01-27T01:11:16;102026.97;;;4.56;100.00
19086;BME280;9675;51.538;6.728;2023-01-27T01:13:45;102032.88;;;4.55;100.00
19086;BME280;9675;51.538;6.728;2023-01-27T01:16:16;102036.91;;;4.53;100.00
19086;BME280;9675;51.538;6.728;2023-01-27T01:18:46;102041.13;;;4.53;100.00
19086;BME280;9675;51.538;6.728;2023-01-27T01:21:15;102036.00;;;4.53;100.00
19086;BME280;9675;51.538;6.728;2023-01-27T01:23:44;102032.72;;;4.54;100.00
19086;BME280;9675;51.538;6.728;2023-01-27T01:26:13;102047.13;;;4.53;100.00
19086;BME280;9675;51.538;6.728;2023-01-27T01:28:42;102036.75;;;4.52;100.00
19086;BME280;9675;51.538;6.728;2023-01-27T01:31:11;102044.28;;;4.50;100.00
19086;BME280;9675;51.538;6.728;2023-01-27T01:33:39;102043.50;;;4.51;100.00
19086;BME280;9675;51.538;6.728;2023-01-27T01:36:10;102047.13;;;4.53;100.00
19086;BME280;9675;51.538;6.728;2023-01-27T01:38:38;102049.66;;;4.53;100.00
19086;BME280;9675;51.538;6.728;2023-01-27T01:41:06;102056.25;;;4.51;100.00
19086;BME280;9675;51.538;6.728;2023-01-27T01:43:34;102057.03;;;4.50;100.00
19086;BME280;9675;51.538;6.728;2023-01-27T01:46:02;102055.25;;;4.49;100.00
19086;BME280;9675;51.538;6.728;2023-01-27T01:48:33;102056.75;;;4.47;100.00
19086;BME280;9675;51.538;6.728;2023-01-27T01:51:09;102062.16;;;4.50;100.00
19086;BME280;9675;51.538;6.728;2023-01-27T01:53:46;102048.50;;;4.50;100.00
19086;BME280;9675;51.538;6.728;2023-01-27T01:56:22;102055.25;;;4.49;100.00
19086;BME280;9675;51.538;6.728;2023-01-27T01:58:52;102061.25;;;4.50;100.00
19086;BME280;9675;51.538;6.728;2023-01-27T02:01:21;102060.34;;;4.49;100.00
19086;BME280;9675;51.538;6.728;2023-01-27T02:03:53;102063.91;;;4.51;100.00
19086;BME280;9675;51.538;6.728;2023-01-27T02:06:24;102067.09;;;4.49;100.00
19086;BME280;9675;51.538;6.728;2023-01-27T02:08:53;102066.03;;;4.47;100.00
19086;BME280;9675;51.538;6.728;2023-01-27T02:11:20;102073.84;;;4.48;100.00
19086;BME280;9675;51.538;6.728;2023-01-27T02:13:48;102071.13;;;4.47;100.00
19086;BME280;9675;51.538;6.728;2023-01-27T02:16:15;102070.25;;;4.46;100.00
19086;BME280;9675;51.538;6.728;2023-01-27T02:18:42;102065.13;;;4.46;100.00
19086;BME280;9675;51.538;6.728;2023-01-27T02:21:09;102077.16;;;4.47;100.00
19086;BME280;9675;51.538;6.728;2023-01-27T02:23:48;102068.47;;;4.45;100.00
19086;BME280;9675;51.538;6.728;2023-01-27T02:26:22;102076.13;;;4.45;100.00
19086;BME280;9675;51.538;6.728;2023-01-27T02:28:55;102088.88;;;4.45;100.00
19086;BME280;9675;51.538;6.728;2023-01-27T02:31:23;102087.81;;;4.43;100.00
19086;BME280;9675;51.538;6.728;2023-01-27T02:33:53;102084.53;;;4.44;100.00
19086;BME280;9675;51.538;6.728;2023-01-27T02:36:24;102085.28;;;4.43;100.00
19086;BME280;9675;51.538;6.728;2023-01-27T02:38:55;102085.28;;;4.43;100.00
19086;BME280;9675;51.538;6.728;2023-01-27T02:41:33;102081.06;;;4.44;100.00
19086;BME280;9675;51.538;6.728;2023-01-27T02:44:00;102088.56;;;4.42;100.00
19086;BME280;9675;51.538;6.728;2023-01-27T02:46:28;102086.75;;;4.41;100.00
19086;BME280;9675;51.538;6.728;2023-01-27T02:48:55;102089.47;;;4.43;100.00
19086;BME280;9675;51.538;6.728;2023-01-27T02:51:22;102096.97;;;4.41;100.00
19086;BME280;9675;51.538;6.728;2023-01-27T02:53:49;102090.09;;;4.40;100.00
19086;BME280;9675;51.538;6.728;2023-01-27T02:56:16;102099.25;;;4.38;100.00
19086;BME280;9675;51.538;6.728;2023-01-27T02:58:45;102103.28;;;4.36;100.00
19086;BME280;9675;51.538;6.728;2023-01-27T03:01:12;102102.53;;;4.37;100.00
19086;BME280;9675;51.538;6.728;2023-01-27T03:03:39;102105.09;;;4.37;100.00
19086;BME280;9675;51.538;6.728;2023-01-27T03:06:11;102094.00;;;4.37;100.00
19086;BME280;9675;51.538;6.728;2023-01-27T03:08:39;102100.72;;;4.36;100.00
19086;BME280;9675;51.538;6.728;2023-01-27T03:11:07;102105.09;;;4.37;100.00
19086;BME280;9675;51.538;6.728;2023-01-27T03:13:34;102102.38;;;4.36;100.00
19086;BME280;9675;51.538;6.728;2023-01-27T03:16:05;102098.81;;;4.34;100.00
19086;BME280;9675;51.538;6.728;2023-01-27T03:18:50;102105.56;;;4.33;100.00
19086;BME280;9675;51.538;6.728;2023-01-27T03:21:18;102109.00;;;4.34;100.00
19086;BME280;9675;51.538;6.728;2023-01-27T03:23:46;102111.41;;;4.32;100.00
19086;BME280;9675;51.538;6.728;2023-01-27T03:26:14;102096.09;;;4.32;100.00
19086;BME280;9675;51.538;6.728;2023-01-27T03:28:42;102095.22;;;4.32;100.00
19086;BME280;9675;51.538;6.728;2023-01-27T03:31:30;102093.41;;;4.31;100.00
19086;BME280;9675;51.538;6.728;2023-01-27T03:33:57;102097.59;;;4.30;100.00
19086;BME280;9675;51.538;6.728;2023-01-27T03:36:24;102099.28;;;4.30;100.00
19086;BME280;9675;51.538;6.728;2023-01-27T03:39:09;102105.88;;;4.27;100.00
19086;BME280;9675;51.538;6.728;2023-01-27T03:41:53;102102.44;;;4.27;100.00
19086;BME280;9675;51.538;6.728;2023-01-27T03:44:38;102098.97;;;4.26;100.00
19086;BME280;9675;51.538;6.728;2023-01-27T03:47:25;102097.94;;;4.24;100.00
19086;BME280;9675;51.538;6.728;2023-01-27T03:49:52;102103.81;;;4.23;100.00
19086;BME280;9675;51.538;6.728;2023-01-27T03:52:19;102106.34;;;4.23;100.00
19086;BME280;9675;51.538;6.728;2023-01-27T03:54:46;102103.06;;;4.24;100.00
19086;BME280;9675;51.538;6.728;2023-01-27T03:57:14;102108.91;;;4.23;100.00
19086;BME280;9675;51.538;6.728;2023-01-27T03:59:41;102107.25;;;4.24;100.00
19086;BME280;9675;51.538;6.728;2023-01-27T04:02:08;102103.66;;;4.22;100.00
19086;BME280;9675;51.538;6.728;2023-01-27T04:04:53;102106.94;;;4.21;100.00
19086;BME280;9675;51.538;6.728;2023-01-27T04:07:38;102111.13;;;4.20;100.00
19086;BME280;9675;51.538;6.728;2023-01-27T04:10:06;102109.00;;;4.25;100.00
19086;BME280;9675;51.538;6.728;2023-01-27T04:12:33;102109.78;;;4.24;100.00
19086;BME280;9675;51.538;6.728;2023-01-27T04:14:59;102110.53;;;4.23;100.00
19086;BME280;9675;51.538;6.728;2023-01-27T04:17:26;102112.19;;;4.22;100.00
19086;BME280;9675;51.538;6.728;2023-01-27T04:19:56;102112.78;;;4.20;100.00
19086;BME280;9675;51.538;6.728;2023-01-27T04:22:23;102110.22;;;4.20;100.00
19086;BME280;9675;51.538;6.728;2023-01-27T04:24:50;102106.66;;;4.18;100.00
19086;BME280;9675;51.538;6.728;2023-01-27T04:27:17;102104.13;;;4.18;100.00
19086;BME280;9675;51.538;6.728;2023-01-27T04:29:45;102111.59;;;4.16;100.00
19086;BME280;9675;51.538;6.728;2023-01-27T04:32:12;102111.75;;;4.18;100.00
19086;BME280;9675;51.538;6.728;2023-01-27T04:34:40;102111.75;;;4.18;100.00
19086;BME280;9675;51.538;6.728;2023-01-27T04:37:09;102111.75;;;4.18;100.00
19086;BME280;9675;51.538;6.728;2023-01-27T04:39:37;102110.72;;;4.16;100.00
19086;BME280;9675;51.538;6.728;2023-01-27T04:42:04;102111.44;;;4.15;100.00
19086;BME280;9675;51.538;6.728;2023-01-27T04:44:31;102113.88;;;4.13;100.00
19086;BME280;9675;51.538;6.728;2023-01-27T04:46:58;102119.88;;;4.14;100.00
19086;BME280;9675;51.538;6.728;2023-01-27T04:49:25;102122.44;;;4.14;100.00
19086;BME280;9675;51.538;6.728;2023-01-27T04:51:52;102114.47;;;4.11;100.00
19086;BME280;9675;51.538;6.728;2023-01-27T04:54:21;102117.75;;;4.10;100.00
19086;BME280;9675;51.538;6.728;2023-01-27T04:56:57;102120.31;;;4.10;100.00
19086;BME280;9675;51.538;6.728;2023-01-27T04:59:25;102123.75;;;4.10;100.00
19086;BME280;9675;51.538;6.728;2023-01-27T05:01:52;102123.47;;;4.07;100.00
19086;BME280;9675;51.538;6.728;2023-01-27T05:04:19;102130.22;;;4.07;100.00
19086;BME280;9675;51.538;6.728;2023-01-27T05:06:46;102129.47;;;4.08;100.00
19086;BME280;9675;51.538;6.728;2023-01-27T05:09:13;102122.59;;;4.07;100.00
19086;BME280;9675;51.538;6.728;2023-01-27T05:11:42;102131.88;;;4.06;100.00
19086;BME280;9675;51.538;6.728;2023-01-27T05:14:09;102127.41;;;4.04;100.00
19086;BME280;9675;51.538;6.728;2023-01-27T05:16:38;102129.31;;;4.06;100.00
19086;BME280;9675;51.538;6.728;2023-01-27T05:19:05;102132.03;;;4.08;100.00
19086;BME280;9675;51.538;6.728;2023-01-27T05:21:32;102125.88;;;4.06;100.00
19086;BME280;9675;51.538;6.728;2023-01-27T05:24:00;102129.16;;;4.05;100.00
19086;BME280;9675;51.538;6.728;2023-01-27T05:26:27;102132.50;;;4.04;100.00
19086;BME280;9675;51.538;6.728;2023-01-27T05:28:57;102143.44;;;4.03;100.00
19086;BME280;9675;51.538;6.728;2023-01-27T05:31:28;102139.09;;;4.02;100.00
19086;BME280;9675;51.538;6.728;2023-01-27T05:33:59;102131.59;;;4.03;100.00
19086;BME280;9675;51.538;6.728;2023-01-27T05:36:27;102131.59;;;4.03;100.00
19086;BME280;9675;51.538;6.728;2023-01-27T05:38:56;102132.34;;;4.02;100.00
19086;BME280;9675;51.538;6.728;2023-01-27T05:41:23;102132.94;;;4.00;100.00
19086;BME280;9675;51.538;6.728;2023-01-27T05:43:53;102138.19;;;4.01;100.00
19086;BME280;9675;51.538;6.728;2023-01-27T05:46:24;102144.03;;;4.00;100.00
19086;BME280;9675;51.538;6.728;2023-01-27T05:48:54;102150.03;;;4.01;100.00
19086;BME280;9675;51.538;6.728;2023-01-27T05:51:24;102146.56;;;4.00;100.00
19086;BME280;9675;51.538;6.728;2023-01-27T05:53:51;102147.47;;;4.01;100.00
19086;BME280;9675;51.538;6.728;2023-01-27T05:56:21;102142.53;;;4.02;100.00
19086;BME280;9675;51.538;6.728;2023-01-27T05:58:48;102144.91;;;4.01;100.00
19086;BME280;9675;51.538;6.728;2023-01-27T06:01:20;102141.63;;;4.02;100.00
19086;BME280;9675;51.538;6.728;2023-01-27T06:03:49;102144.19;;;4.02;100.00
19086;BME280;9675;51.538;6.728;2023-01-27T06:06:18;102143.91;;;3.99;100.00
19086;BME280;9675;51.538;6.728;2023-01-27T06:08:46;102137.28;;;4.01;100.00
19086;BME280;9675;51.538;6.728;2023-01-27T06:11:14;102140.56;;;4.00;100.00
19086;BME280;9675;51.538;6.728;2023-01-27T06:13:42;102142.38;;;4.01;100.00
19086;BME280;9675;51.538;6.728;2023-01-27T06:16:13;102147.19;;;3.98;100.00
19086;BME280;9675;51.538;6.728;2023-01-27T06:18:42;102149.75;;;3.98;100.00
19086;BME280;9675;51.538;6.728;2023-01-27T06:21:11;102149.59;;;3.96;100.00
19086;BME280;9675;51.538;6.728;2023-01-27T06:23:39;102158.88;;;3.96;100.00
19086;BME280;9675;51.538;6.728;2023-01-27T06:26:09;102161.41;;;3.96;100.00
19086;BME280;9675;51.538;6.728;2023-01-27T06:28:38;102158.88;;;3.96;100.00
19086;BME280;9675;51.538;6.728;2023-01-27T06:31:06;102175.50;;;4.01;100.00
19086;BME280;9675;51.538;6.728;2023-01-27T06:33:33;102177.03;;;3.99;100.00
19086;BME280;9675;51.538;6.728;2023-01-27T06:36:02;102180.16;;;3.96;100.00
19086;BME280;9675;51.538;6.728;2023-01-27T06:38:31;102184.34;;;3.96;100.00
19086;BME280;9675;51.538;6.728;2023-01-27T06:40:59;102185.09;;;3.95;100.00
19086;BME280;9675;51.538;6.728;2023-01-27T06:43:27;102181.81;;;3.96;100.00
19086;BME280;9675;51.538;6.728;2023-01-27T06:45:54;102177.59;;;3.96;100.00
19086;BME280;9675;51.538;6.728;2023-01-27T06:48:22;102175.06;;;3.96;100.00
19086;BME280;9675;51.538;6.728;2023-01-27T06:50:49;102174.16;;;3.96;100.00
19086;BME280;9675;51.538;6.728;2023-01-27T06:53:17;102175.06;;;3.96;100.00
19086;BME280;9675;51.538;6.728;2023-01-27T06:55:46;102175.34;;;3.99;100.00
19086;BME280;9675;51.538;6.728;2023-01-27T06:58:14;102175.34;;;3.99;100.00
19086;BME280;9675;51.538;6.728;2023-01-27T07:00:41;102170.88;;;3.97;100.00
19086;BME280;9675;51.538;6.728;2023-01-27T07:03:10;102179.25;;;3.96;100.00
19086;BME280;9675;51.538;6.728;2023-01-27T07:05:40;102183.44;;;3.95;100.00
19086;BME280;9675;51.538;6.728;2023-01-27T07:08:08;102183.16;;;3.92;100.00
19086;BME280;9675;51.538;6.728;2023-01-27T07:10:35;102189.16;;;3.93;100.00
19086;BME280;9675;51.538;6.728;2023-01-27T07:13:06;102185.72;;;3.92;100.00
19086;BME280;9675;51.538;6.728;2023-01-27T07:15:34;102192.63;;;3.93;100.00
19086;BME280;9675;51.538;6.728;2023-01-27T07:18:02;102189.16;;;3.93;100.00
19086;BME280;9675;51.538;6.728;2023-01-27T07:20:30;102199.34;;;3.93;100.00
19086;BME280;9675;51.538;6.728;2023-01-27T07:22:58;102196.06;;;3.94;100.00
19086;BME280;9675;51.538;6.728;2023-01-27T07:25:26;102201.91;;;3.93;100.00
19086;BME280;9675;51.538;6.728;2023-01-27T07:27:56;102205.19;;;3.92;100.00
19086;BME280;9675;51.538;6.728;2023-01-27T07:30:26;102211.94;;;3.91;100.00
19086;BME280;9675;51.538;6.728;2023-01-27T07:32:53;102211.03;;;3.91;100.00
19086;BME280;9675;51.538;6.728;2023-01-27T07:35:22;102205.03;;;3.90;100.00
19086;BME280;9675;51.538;6.728;2023-01-27T07:37:49;102219.41;;;3.90;100.00
19086;BME280;9675;51.538;6.728;2023-01-27T07:40:17;102219.41;;;3.90;100.00
19086;BME280;9675;51.538;6.728;2023-01-27T07:42:44;102215.97;;;3.89;100.00
19086;BME280;9675;51.538;6.728;2023-01-27T07:45:11;102216.13;;;3.91;100.00
19086;BME280;9675;51.538;6.728;2023-01-27T07:47:40;102223.03;;;3.92;100.00
19086;BME280;9675;51.538;6.728;2023-01-27T07:50:08;102218.69;;;3.91;100.00
19086;BME280;9675;51.538;6.728;2023-01-27T07:52:36;102221.97;;;3.90;100.00
19086;BME280;9675;51.538;6.728;2023-01-27T07:55:04;102223.94;;;3.92;100.00
19086;BME280;9675;51.538;6.728;2023-01-27T07:57:33;102224.09;;;3.94;100.00
19086;BME280;9675;51.538;6.728;2023-01-27T08:00:00;102229.03;;;3.92;100.00
19086;BME280;9675;51.538;6.728;2023-01-27T08:02:27;102223.03;;;3.92;100.00
19086;BME280;9675;51.538;6.728;2023-01-27T08:04:57;102232.47;;;3.93;100.00
19086;BME280;9675;51.538;6.728;2023-01-27T08:07:24;102224.84;;;3.93;100.00
19086;BME280;9675;51.538;6.728;2023-01-27T08:09:51;102226.47;;;3.92;100.00
19086;BME280;9675;51.538;6.728;2023-01-27T08:12:19;102233.97;;;3.91;100.00
19086;BME280;9675;51.538;6.728;2023-01-27T08:14:49;102241.59;;;3.91;100.00
19086;BME280;9675;51.538;6.728;2023-01-27T08:17:16;102230.69;;;3.92;100.00
19086;BME280;9675;51.538;6.728;2023-01-27T08:19:43;102243.69;;;3.95;100.00
19086;BME280;9675;51.538;6.728;2023-01-27T08:22:12;102243.69;;;3.95;100.00
19086;BME280;9675;51.538;6.728;2023-01-27T08:24:44;102236.84;;;3.94;100.00
19086;BME280;9675;51.538;6.728;2023-01-27T08:27:11;102228.41;;;3.95;100.00
19086;BME280;9675;51.538;6.728;2023-01-27T08:29:38;102239.66;;;3.97;100.00
19086;BME280;9675;51.538;6.728;2023-01-27T08:32:05;102238.59;;;3.95;100.00
19086;BME280;9675;51.538;6.728;2023-01-27T08:34:34;102240.41;;;3.96;100.00
19086;BME280;9675;51.538;6.728;2023-01-27T08:37:01;102236.22;;;3.96;100.00
19086;BME280;9675;51.538;6.728;2023-01-27T08:39:30;102237.13;;;3.97;100.00
19086;BME280;9675;51.538;6.728;2023-01-27T08:41:57;102248.22;;;3.97;100.00
19086;BME280;9675;51.538;6.728;2023-01-27T08:44:25;102244.75;;;3.97;100.00
19086;BME280;9675;51.538;6.728;2023-01-27T08:46:53;102242.97;;;3.96;100.00
19086;BME280;9675;51.538;6.728;2023-01-27T08:49:20;102251.78;;;3.99;100.00
19086;BME280;9675;51.538;6.728;2023-01-27T08:51:47;102251.78;;;3.99;100.00
19086;BME280;9675;51.538;6.728;2023-01-27T08:54:14;102250.13;;;4.00;100.00
19086;BME280;9675;51.538;6.728;2023-01-27T08:56:42;102247.59;;;4.00;100.00
19086;BME280;9675;51.538;6.728;2023-01-27T08:59:09;102258.69;;;4.00;100.00
19086;BME280;9675;51.538;6.728;2023-01-27T09:01:36;102255.25;;;4.00;100.00
19086;BME280;9675;51.538;6.728;2023-01-27T09:04:04;102266.50;;;4.02;100.00
19086;BME280;9675;51.538;6.728;2023-01-27T09:06:31;102263.94;;;4.02;100.00
19086;BME280;9675;51.538;6.728;2023-01-27T09:08:58;102273.53;;;4.04;100.00
19086;BME280;9675;51.538;6.728;2023-01-27T09:11:35;102264.22;;;4.05;100.00
19086;BME280;9675;51.538;6.728;2023-01-27T09:14:05;102271.13;;;4.06;100.00
19086;BME280;9675;51.538;6.728;2023-01-27T09:16:32;102267.09;;;4.08;100.00
19086;BME280;9675;51.538;6.728;2023-01-27T09:18:59;102278.19;;;4.08;100.00
19086;BME280;9675;51.538;6.728;2023-01-27T09:21:26;102272.19;;;4.08;100.00
19086;BME280;9675;51.538;6.728;2023-01-27T09:23:56;102274.88;;;4.09;100.00
19086;BME280;9675;51.538;6.728;2023-01-27T09:26:23;102278.31;;;4.10;100.00
19086;BME280;9675;51.538;6.728;2023-01-27T09:28:52;102285.97;;;4.10;100.00
19086;BME280;9675;51.538;6.728;2023-01-27T09:31:20;102288.69;;;4.11;100.00
19086;BME280;9675;51.538;6.728;2023-01-27T09:33:47;102295.44;;;4.11;100.00
19086;BME280;9675;51.538;6.728;2023-01-27T09:36:18;102300.69;;;4.12;100.00
19086;BME280;9675;51.538;6.728;2023-01-27T09:38:50;102303.38;;;4.14;100.00
19086;BME280;9675;51.538;6.728;2023-01-27T09:44:56;102308.63;;;4.15;100.00
19086;BME280;9675;51.538;6.728;2023-01-27T09:47:46;102312.06;;;4.16;100.00
19086;BME280;9675;51.538;6.728;2023-01-27T09:50:30;102303.84;;;4.18;100.00
19086;BME280;9675;51.538;6.728;2023-01-27T09:53:23;102302.19;;;4.19;100.00
19086;BME280;9675;51.538;6.728;2023-01-27T09:56:04;102297.09;;;4.19;100.00
19086;BME280;9675;51.538;6.728;2023-01-27T09:58:50;102303.09;;;4.19;100.00
19086;BME280;9675;51.538;6.728;2023-01-27T10:01:33;102300.66;;;4.21;100.00
19086;BME280;9675;51.538;6.728;2023-01-27T10:04:24;102310.13;;;4.22;100.00
19086;BME280;9675;51.538;6.728;2023-01-27T10:07:34;102305.03;;;4.22;100.00
19086;BME280;9675;51.538;6.728;2023-01-27T10:10:27;102302.75;;;4.25;100.00
19086;BME280;9675;51.538;6.728;2023-01-27T10:13:24;102306.38;;;4.27;100.00
19086;BME280;9675;51.538;6.728;2023-01-27T10:16:23;102308.19;;;4.28;100.00
19086;BME280;9675;51.538;6.728;2023-01-27T10:19:11;102299.63;;;4.27;100.00
19086;BME280;9675;51.538;6.728;2023-01-27T10:21:58;102309.22;;;4.30;100.00
19086;BME280;9675;51.538;6.728;2023-01-27T10:24:45;102311.75;;;4.30;100.00
19086;BME280;9675;51.538;6.728;2023-01-27T10:27:17;102309.22;;;4.30;100.00
19086;BME280;9675;51.538;6.728;2023-01-27T10:29:56;102306.06;;;4.33;100.00
19086;BME280;9675;51.538;6.728;2023-01-27T10:32:27;102312.06;;;4.33;100.00
19086;BME280;9675;51.538;6.728;2023-01-27T10:35:08;102313.25;;;4.37;100.00
19086;BME280;9675;51.538;6.728;2023-01-27T10:37:53;102309.81;;;4.36;100.00
19086;BME280;9675;51.538;6.728;2023-01-27T10:40:36;102316.56;;;4.36;100.00
19086;BME280;9675;51.538;6.728;2023-01-27T10:43:14;102305.78;;;4.38;100.00
19086;BME280;9675;51.538;6.728;2023-01-27T10:45:52;102306.84;;;4.40;100.00
19086;BME280;9675;51.538;6.728;2023-01-27T10:48:34;102315.34;;;4.41;100.00
19086;BME280;9675;51.538;6.728;2023-01-27T10:51:12;102312.97;;;4.42;100.00
19086;BME280;9675;51.538;6.728;2023-01-27T10:53:51;102303.50;;;4.41;100.00
19086;BME280;9675;51.538;6.728;2023-01-27T10:56:32;102311.47;;;4.44;100.00
19086;BME280;9675;51.538;6.728;2023-01-27T10:59:07;102307.41;;;4.46;100.00
19086;BME280;9675;51.538;6.728;2023-01-27T11:01:42;102304.09;;;4.47;100.00
19086;BME280;9675;51.538;6.728;2023-01-27T11:04:18;102296.47;;;4.47;100.00
19086;BME280;9675;51.538;6.728;2023-01-27T11:06:50;102302.47;;;4.48;100.00
19086;BME280;9675;51.538;6.728;2023-01-27T11:09:25;102298.25;;;4.48;100.00
19086;BME280;9675;51.538;6.728;2023-01-27T11:11:59;102294.97;;;4.49;100.00
19086;BME280;9675;51.538;6.728;2023-01-27T11:14:30;102290.63;;;4.48;100.00
19086;BME280;9675;51.538;6.728;2023-01-27T11:17:13;102298.53;;;4.51;100.00
19086;BME280;9675;51.538;6.728;2023-01-27T11:20:01;102299.44;;;4.52;100.00
19086;BME280;9675;51.538;6.728;2023-01-27T11:22:43;102297.81;;;4.52;100.00
19086;BME280;9675;51.538;6.728;2023-01-27T11:25:23;102298.88;;;4.54;100.00
19086;BME280;9675;51.538;6.728;2023-01-27T11:28:09;102288.66;;;4.54;100.00
19086;BME280;9675;51.538;6.728;2023-01-27T11:30:48;102291.97;;;4.53;100.00
19086;BME280;9675;51.538;6.728;2023-01-27T11:33:22;102296.75;;;4.59;100.00
19086;BME280;9675;51.538;6.728;2023-01-27T11:35:53;102297.34;;;4.56;100.00
19086;BME280;9675;51.538;6.728;2023-01-27T11:38:22;102289.84;;;4.58;100.00
19086;BME280;9675;51.538;6.728;2023-01-27T11:40:51;102287.13;;;4.56;100.00
19086;BME280;9675;51.538;6.728;2023-01-27T11:43:24;102283.84;;;4.57;100.00
19086;BME280;9675;51.538;6.728;2023-01-27T11:46:00;102283.09;;;4.58;100.00
19086;BME280;9675;51.538;6.728;2023-01-27T11:48:37;102281.44;;;4.59;100.00
19086;BME280;9675;51.538;6.728;2023-01-27T11:51:13;102288.47;;;4.61;100.00
19086;BME280;9675;51.538;6.728;2023-01-27T11:53:45;102289.25;;;4.60;100.00
19086;BME280;9675;51.538;6.728;2023-01-27T11:56:18;102285.94;;;4.61;100.00
19086;BME280;9675;51.538;6.728;2023-01-27T11:58:53;102280.06;;;4.62;100.00
19086;BME280;9675;51.538;6.728;2023-01-27T12:01:33;102276.63;;;4.62;100.00
19086;BME280;9675;51.538;6.728;2023-01-27T12:04:06;102276.03;;;4.64;100.00
19086;BME280;9675;51.538;6.728;2023-01-27T12:06:45;102279.63;;;4.66;100.00
19086;BME280;9675;51.538;6.728;2023-01-27T12:09:34;102274.66;;;4.68;100.00
19086;BME280;9675;51.538;6.728;2023-01-27T12:12:23;102269.41;;;4.66;100.00
19086;BME280;9675;51.538;6.728;2023-01-27T12:14:52;102266.41;;;4.62;100.00
19086;BME280;9675;51.538;6.728;2023-01-27T12:17:29;102269.72;;;4.69;100.00
19086;BME280;9675;51.538;6.728;2023-01-27T12:20:01;102261.91;;;4.68;100.00
19086;BME280;9675;51.538;6.728;2023-01-27T12:22:35;102276.63;;;4.70;100.00
19086;BME280;9675;51.538;6.728;2023-01-27T12:25:15;102264.63;;;4.69;100.00
19086;BME280;9675;51.538;6.728;2023-01-27T12:27:50;102271.53;;;4.70;100.00
19086;BME280;9675;51.538;6.728;2023-01-27T12:30:23;102266.69;;;4.74;100.00
19086;BME280;9675;51.538;6.728;2023-01-27T12:32:51;102253.94;;;4.74;100.00
19086;BME280;9675;51.538;6.728;2023-01-27T12:35:22;102255.00;;;4.76;100.00
19086;BME280;9675;51.538;6.728;2023-01-27T12:37:56;102261.91;;;4.77;100.00
19086;BME280;9675;51.538;6.728;2023-01-27T12:40:27;102256.81;;;4.77;100.00
19086;BME280;9675;51.538;6.728;2023-01-27T12:43:10;102253.34;;;4.76;100.00
19086;BME280;9675;51.538;6.728;2023-01-27T12:45:39;102253.47;;;4.78;100.00
19086;BME280;9675;51.538;6.728;2023-01-27T12:48:20;102248.38;;;4.78;100.00
19086;BME280;9675;51.538;6.728;2023-01-27T12:51:02;102246.88;;;4.80;100.00
19086;BME280;9675;51.538;6.728;2023-01-27T12:53:30;102239.38;;;4.81;100.00
19086;BME280;9675;51.538;6.728;2023-01-27T12:56:07;102238.47;;;4.81;100.00
19086;BME280;9675;51.538;6.728;2023-01-27T12:58:38;102242.94;;;4.83;100.00
19086;BME280;9675;51.538;6.728;2023-01-27T13:01:22;102239.06;;;4.87;100.00
19086;BME280;9675;51.538;6.728;2023-01-27T13:03:53;102236.94;;;4.83;100.00
19086;BME280;9675;51.538;6.728;2023-01-27T13:06:33;102246.25;;;4.91;100.00
19086;BME280;9675;51.538;6.728;2023-01-27T13:09:04;102240.50;;;4.93;100.00
19086;BME280;9675;51.538;6.728;2023-01-27T13:11:39;102240.66;;;4.95;100.00
19086;BME280;9675;51.538;6.728;2023-01-27T13:14:08;102252.25;;;4.91;100.00
19086;BME280;9675;51.538;6.728;2023-01-27T13:16:49;102241.41;;;4.94;100.00
19086;BME280;9675;51.538;6.728;2023-01-27T13:19:18;102238.13;;;4.95;100.00
19086;BME280;9675;51.538;6.728;2023-01-27T13:21:48;102245.28;;;4.99;100.00
19086;BME280;9675;51.538;6.728;2023-01-27T13:24:32;102257.03;;;4.97;100.00
19086;BME280;9675;51.538;6.728;2023-01-27T13:27:15;102247.09;;;5.00;100.00